sensor_id;sensor_type;location;lat;lon;timestamp;P1;durP1;ratioP1;P2;durP2;ratioP2
66129;SDS011;52930;51.464;11.764;2024-03-17T00:00:13;7.63;;;3.10;;
66129;SDS011;52930;51.464;11.764;2024-03-17T00:02:40;12.85;;;3.00;;
66129;SDS011;52930;51.464;11.764;2024-03-17T00:05:06;11.30;;;3.13;;
66129;SDS011;52930;51.464;11.764;2024-03-17T00:07:31;10.05;;;3.28;;
66129;SDS011;52930;51.464;11.764;2024-03-17T00:09:57;8.60;;;3.05;;
66129;SDS011;52930;51.464;11.764;2024-03-17T00:12:22;9.03;;;2.80;;
66129;SDS011;52930;51.464;11.764;2024-03-17T00:14:48;9.40;;;3.40;;
66129;SDS011;52930;51.464;11.764;2024-03-17T00:17:13;10.47;;;3.17;;
66129;SDS011;52930;51.464;11.764;2024-03-17T00:19:40;10.35;;;3.28;;
66129;SDS011;52930;51.464;11.764;2024-03-17T00:22:05;7.47;;;2.93;;
66129;SDS011;52930;51.464;11.764;2024-03-17T00:24:30;8.80;;;3.20;;
66129;SDS011;52930;51.464;11.764;2024-03-17T00:27:00;10.60;;;3.05;;
66129;SDS011;52930;51.464;11.764;2024-03-17T00:29:26;9.27;;;2.90;;
66129;SDS011;52930;51.464;11.764;2024-03-17T00:31:52;7.32;;;3.17;;
66129;SDS011;52930;51.464;11.764;2024-03-17T00:34:18;8.03;;;3.10;;
66129;SDS011;52930;51.464;11.764;2024-03-17T00:36:44;9.27;;;2.83;;
66129;SDS011;52930;51.464;11.764;2024-03-17T00:39:09;10.27;;;2.70;;
66129;SDS011;52930;51.464;11.764;2024-03-17T00:41:34;7.13;;;2.65;;
66129;SDS011;52930;51.464;11.764;2024-03-17T00:44:00;10.17;;;2.90;;
66129;SDS011;52930;51.464;11.764;2024-03-17T00:46:25;8.13;;;3.07;;
66129;SDS011;52930;51.464;11.764;2024-03-17T00:48:51;7.15;;;2.90;;
66129;SDS011;52930;51.464;11.764;2024-03-17T00:51:16;7.07;;;2.57;;
66129;SDS011;52930;51.464;11.764;2024-03-17T00:53:42;9.67;;;2.90;;
66129;SDS011;52930;51.464;11.764;2024-03-17T00:56:07;6.77;;;2.77;;
66129;SDS011;52930;51.464;11.764;2024-03-17T00:58:33;8.15;;;2.55;;
66129;SDS011;52930;51.464;11.764;2024-03-17T01:00:58;12.03;;;3.07;;
66129;SDS011;52930;51.464;11.764;2024-03-17T01:03:24;6.20;;;2.60;;
66129;SDS011;52930;51.464;11.764;2024-03-17T01:05:49;5.97;;;2.27;;
66129;SDS011;52930;51.464;11.764;2024-03-17T01:08:17;10.02;;;2.50;;
66129;SDS011;52930;51.464;11.764;2024-03-17T01:10:43;8.82;;;2.70;;
66129;SDS011;52930;51.464;11.764;2024-03-17T01:13:09;10.15;;;2.38;;
66129;SDS011;52930;51.464;11.764;2024-03-17T01:15:38;10.53;;;2.60;;
66129;SDS011;52930;51.464;11.764;2024-03-17T01:18:04;7.70;;;2.67;;
66129;SDS011;52930;51.464;11.764;2024-03-17T01:20:30;7.73;;;2.70;;
66129;SDS011;52930;51.464;11.764;2024-03-17T01:22:55;10.50;;;3.28;;
66129;SDS011;52930;51.464;11.764;2024-03-17T01:25:20;8.47;;;3.77;;
66129;SDS011;52930;51.464;11.764;2024-03-17T01:27:46;8.93;;;3.37;;
66129;SDS011;52930;51.464;11.764;2024-03-17T01:30:11;8.10;;;3.10;;
66129;SDS011;52930;51.464;11.764;2024-03-17T01:32:37;8.98;;;3.30;;
66129;SDS011;52930;51.464;11.764;2024-03-17T01:35:02;8.43;;;2.40;;
66129;SDS011;52930;51.464;11.764;2024-03-17T01:37:28;8.03;;;3.57;;
66129;SDS011;52930;51.464;11.764;2024-03-17T01:39:56;10.85;;;3.42;;
66129;SDS011;52930;51.464;11.764;2024-03-17T01:42:22;10.10;;;3.50;;
66129;SDS011;52930;51.464;11.764;2024-03-17T01:44:47;9.20;;;3.17;;
66129;SDS011;52930;51.464;11.764;2024-03-17T01:47:12;10.73;;;3.77;;
66129;SDS011;52930;51.464;11.764;2024-03-17T01:49:38;10.23;;;3.90;;
66129;SDS011;52930;51.464;11.764;2024-03-17T01:52:03;10.67;;;3.80;;
66129;SDS011;52930;51.464;11.764;2024-03-17T01:54:30;11.02;;;3.55;;
66129;SDS011;52930;51.464;11.764;2024-03-17T01:56:56;9.50;;;3.60;;
66129;SDS011;52930;51.464;11.764;2024-03-17T01:59:21;9.63;;;3.43;;
66129;SDS011;52930;51.464;11.764;2024-03-17T02:01:46;9.80;;;2.90;;
66129;SDS011;52930;51.464;11.764;2024-03-17T02:04:11;12.38;;;3.35;;
66129;SDS011;52930;51.464;11.764;2024-03-17T02:06:37;7.93;;;3.30;;
66129;SDS011;52930;51.464;11.764;2024-03-17T02:09:02;9.17;;;3.00;;
66129;SDS011;52930;51.464;11.764;2024-03-17T02:11:31;12.67;;;3.27;;
66129;SDS011;52930;51.464;11.764;2024-03-17T02:13:57;9.15;;;2.90;;
66129;SDS011;52930;51.464;11.764;2024-03-17T02:16:23;9.63;;;2.90;;
66129;SDS011;52930;51.464;11.764;2024-03-17T02:18:49;9.67;;;2.73;;
66129;SDS011;52930;51.464;11.764;2024-03-17T02:21:19;12.07;;;3.25;;
66129;SDS011;52930;51.464;11.764;2024-03-17T02:23:45;9.27;;;3.30;;
66129;SDS011;52930;51.464;11.764;2024-03-17T02:26:11;7.93;;;2.80;;
66129;SDS011;52930;51.464;11.764;2024-03-17T02:28:39;13.23;;;3.10;;
66129;SDS011;52930;51.464;11.764;2024-03-17T02:31:09;9.13;;;3.23;;
66129;SDS011;52930;51.464;11.764;2024-03-17T02:33:35;11.55;;;3.42;;
66129;SDS011;52930;51.464;11.764;2024-03-17T02:36:01;8.98;;;2.85;;
66129;SDS011;52930;51.464;11.764;2024-03-17T02:38:29;8.55;;;2.72;;
66129;SDS011;52930;51.464;11.764;2024-03-17T02:41:13;9.55;;;3.33;;
66129;SDS011;52930;51.464;11.764;2024-03-17T02:43:38;9.07;;;2.83;;
66129;SDS011;52930;51.464;11.764;2024-03-17T02:46:04;8.57;;;2.67;;
66129;SDS011;52930;51.464;11.764;2024-03-17T02:48:30;9.93;;;3.00;;
66129;SDS011;52930;51.464;11.764;2024-03-17T02:50:55;6.90;;;2.70;;
66129;SDS011;52930;51.464;11.764;2024-03-17T02:53:21;9.77;;;3.33;;
66129;SDS011;52930;51.464;11.764;2024-03-17T02:55:46;7.47;;;2.70;;
66129;SDS011;52930;51.464;11.764;2024-03-17T02:58:11;9.35;;;2.85;;
66129;SDS011;52930;51.464;11.764;2024-03-17T03:00:37;11.50;;;3.20;;
66129;SDS011;52930;51.464;11.764;2024-03-17T03:03:02;8.23;;;2.60;;
66129;SDS011;52930;51.464;11.764;2024-03-17T03:05:27;8.87;;;3.00;;
66129;SDS011;52930;51.464;11.764;2024-03-17T03:07:53;10.37;;;2.83;;
66129;SDS011;52930;51.464;11.764;2024-03-17T03:10:18;9.53;;;3.33;;
66129;SDS011;52930;51.464;11.764;2024-03-17T03:12:43;8.93;;;3.13;;
66129;SDS011;52930;51.464;11.764;2024-03-17T03:15:09;8.80;;;3.07;;
66129;SDS011;52930;51.464;11.764;2024-03-17T03:17:34;7.03;;;2.80;;
66129;SDS011;52930;51.464;11.764;2024-03-17T03:19:59;5.77;;;2.50;;
66129;SDS011;52930;51.464;11.764;2024-03-17T03:22:26;7.57;;;2.65;;
66129;SDS011;52930;51.464;11.764;2024-03-17T03:24:52;9.90;;;3.13;;
66129;SDS011;52930;51.464;11.764;2024-03-17T03:27:17;8.38;;;2.75;;
66129;SDS011;52930;51.464;11.764;2024-03-17T03:29:43;9.70;;;2.95;;
66129;SDS011;52930;51.464;11.764;2024-03-17T03:32:08;10.30;;;3.00;;
66129;SDS011;52930;51.464;11.764;2024-03-17T03:34:34;7.77;;;2.80;;
66129;SDS011;52930;51.464;11.764;2024-03-17T03:36:59;8.00;;;3.10;;
66129;SDS011;52930;51.464;11.764;2024-03-17T03:39:24;8.90;;;2.80;;
66129;SDS011;52930;51.464;11.764;2024-03-17T03:41:55;8.27;;;3.28;;
66129;SDS011;52930;51.464;11.764;2024-03-17T03:44:21;8.23;;;3.03;;
66129;SDS011;52930;51.464;11.764;2024-03-17T03:46:47;7.93;;;2.70;;
66129;SDS011;52930;51.464;11.764;2024-03-17T03:49:12;8.07;;;2.90;;
66129;SDS011;52930;51.464;11.764;2024-03-17T03:51:38;8.35;;;3.30;;
66129;SDS011;52930;51.464;11.764;2024-03-17T03:54:04;8.02;;;3.03;;
66129;SDS011;52930;51.464;11.764;2024-03-17T03:56:31;8.73;;;2.63;;
66129;SDS011;52930;51.464;11.764;2024-03-17T03:58:56;9.43;;;3.30;;
66129;SDS011;52930;51.464;11.764;2024-03-17T04:01:22;8.93;;;2.80;;
66129;SDS011;52930;51.464;11.764;2024-03-17T04:03:47;11.40;;;3.30;;
66129;SDS011;52930;51.464;11.764;2024-03-17T04:06:13;8.70;;;2.77;;
66129;SDS011;52930;51.464;11.764;2024-03-17T04:08:40;8.13;;;2.53;;
66129;SDS011;52930;51.464;11.764;2024-03-17T04:11:06;10.70;;;3.13;;
66129;SDS011;52930;51.464;11.764;2024-03-17T04:13:32;8.30;;;3.03;;
66129;SDS011;52930;51.464;11.764;2024-03-17T04:16:00;9.85;;;3.40;;
66129;SDS011;52930;51.464;11.764;2024-03-17T04:18:28;8.05;;;3.00;;
66129;SDS011;52930;51.464;11.764;2024-03-17T04:20:58;9.27;;;3.50;;
66129;SDS011;52930;51.464;11.764;2024-03-17T04:23:26;11.55;;;3.65;;
66129;SDS011;52930;51.464;11.764;2024-03-17T04:25:51;11.80;;;3.37;;
66129;SDS011;52930;51.464;11.764;2024-03-17T04:28:17;8.65;;;3.00;;
66129;SDS011;52930;51.464;11.764;2024-03-17T04:30:43;11.93;;;3.50;;
66129;SDS011;52930;51.464;11.764;2024-03-17T04:33:12;10.13;;;3.40;;
66129;SDS011;52930;51.464;11.764;2024-03-17T04:35:37;9.55;;;2.97;;
66129;SDS011;52930;51.464;11.764;2024-03-17T04:38:03;12.10;;;3.40;;
66129;SDS011;52930;51.464;11.764;2024-03-17T04:40:29;7.40;;;3.13;;
66129;SDS011;52930;51.464;11.764;2024-03-17T04:42:54;11.90;;;3.10;;
66129;SDS011;52930;51.464;11.764;2024-03-17T04:45:20;10.38;;;3.10;;
66129;SDS011;52930;51.464;11.764;2024-03-17T04:47:45;14.67;;;3.60;;
66129;SDS011;52930;51.464;11.764;2024-03-17T04:50:12;7.43;;;2.57;;
66129;SDS011;52930;51.464;11.764;2024-03-17T04:52:37;9.73;;;2.67;;
66129;SDS011;52930;51.464;11.764;2024-03-17T04:55:03;10.93;;;2.90;;
66129;SDS011;52930;51.464;11.764;2024-03-17T04:57:29;9.90;;;3.40;;
66129;SDS011;52930;51.464;11.764;2024-03-17T04:59:54;11.33;;;3.23;;
66129;SDS011;52930;51.464;11.764;2024-03-17T05:02:19;12.97;;;3.33;;
66129;SDS011;52930;51.464;11.764;2024-03-17T05:04:45;9.37;;;3.53;;
66129;SDS011;52930;51.464;11.764;2024-03-17T05:07:10;11.20;;;3.30;;
66129;SDS011;52930;51.464;11.764;2024-03-17T05:09:35;10.37;;;2.90;;
66129;SDS011;52930;51.464;11.764;2024-03-17T05:12:01;7.40;;;3.00;;
66129;SDS011;52930;51.464;11.764;2024-03-17T05:14:26;10.05;;;3.13;;
66129;SDS011;52930;51.464;11.764;2024-03-17T05:16:52;8.10;;;3.43;;
66129;SDS011;52930;51.464;11.764;2024-03-17T05:19:17;11.70;;;3.80;;
66129;SDS011;52930;51.464;11.764;2024-03-17T05:21:45;9.30;;;3.50;;
66129;SDS011;52930;51.464;11.764;2024-03-17T05:24:11;10.60;;;3.55;;
66129;SDS011;52930;51.464;11.764;2024-03-17T05:26:39;9.63;;;3.42;;
66129;SDS011;52930;51.464;11.764;2024-03-17T05:29:04;7.43;;;3.23;;
66129;SDS011;52930;51.464;11.764;2024-03-17T05:31:30;13.90;;;4.33;;
66129;SDS011;52930;51.464;11.764;2024-03-17T05:33:56;11.50;;;3.50;;
66129;SDS011;52930;51.464;11.764;2024-03-17T05:36:21;8.17;;;3.30;;
66129;SDS011;52930;51.464;11.764;2024-03-17T05:38:47;10.23;;;3.80;;
66129;SDS011;52930;51.464;11.764;2024-03-17T05:41:12;8.57;;;3.20;;
66129;SDS011;52930;51.464;11.764;2024-03-17T05:43:38;14.07;;;3.42;;
66129;SDS011;52930;51.464;11.764;2024-03-17T05:46:04;9.77;;;3.70;;
66129;SDS011;52930;51.464;11.764;2024-03-17T05:48:31;10.13;;;3.80;;
66129;SDS011;52930;51.464;11.764;2024-03-17T05:50:56;10.67;;;3.20;;
66129;SDS011;52930;51.464;11.764;2024-03-17T05:53:22;17.70;;;3.80;;
66129;SDS011;52930;51.464;11.764;2024-03-17T05:55:50;8.65;;;3.20;;
66129;SDS011;52930;51.464;11.764;2024-03-17T05:58:16;9.73;;;3.53;;
66129;SDS011;52930;51.464;11.764;2024-03-17T06:00:41;11.77;;;3.33;;
66129;SDS011;52930;51.464;11.764;2024-03-17T06:03:07;9.33;;;3.33;;
66129;SDS011;52930;51.464;11.764;2024-03-17T06:05:32;9.27;;;3.25;;
66129;SDS011;52930;51.464;11.764;2024-03-17T06:07:59;10.33;;;3.20;;
66129;SDS011;52930;51.464;11.764;2024-03-17T06:10:25;8.95;;;3.47;;
66129;SDS011;52930;51.464;11.764;2024-03-17T06:12:52;13.15;;;3.00;;
66129;SDS011;52930;51.464;11.764;2024-03-17T06:15:17;9.70;;;3.17;;
66129;SDS011;52930;51.464;11.764;2024-03-17T06:17:42;8.60;;;3.13;;
66129;SDS011;52930;51.464;11.764;2024-03-17T06:20:08;7.80;;;3.40;;
66129;SDS011;52930;51.464;11.764;2024-03-17T06:22:38;12.52;;;3.72;;
66129;SDS011;52930;51.464;11.764;2024-03-17T06:25:03;10.07;;;3.13;;
66129;SDS011;52930;51.464;11.764;2024-03-17T06:27:29;8.90;;;2.70;;
66129;SDS011;52930;51.464;11.764;2024-03-17T06:29:56;8.55;;;3.10;;
66129;SDS011;52930;51.464;11.764;2024-03-17T06:32:21;7.43;;;3.33;;
66129;SDS011;52930;51.464;11.764;2024-03-17T06:34:46;9.07;;;3.40;;
66129;SDS011;52930;51.464;11.764;2024-03-17T06:37:11;8.70;;;3.03;;
66129;SDS011;52930;51.464;11.764;2024-03-17T06:39:37;7.00;;;3.10;;
66129;SDS011;52930;51.464;11.764;2024-03-17T06:42:02;8.80;;;2.92;;
66129;SDS011;52930;51.464;11.764;2024-03-17T06:44:28;8.68;;;3.30;;
66129;SDS011;52930;51.464;11.764;2024-03-17T06:46:55;11.75;;;3.83;;
66129;SDS011;52930;51.464;11.764;2024-03-17T06:49:20;11.03;;;3.63;;
66129;SDS011;52930;51.464;11.764;2024-03-17T06:51:46;8.47;;;3.03;;
66129;SDS011;52930;51.464;11.764;2024-03-17T06:54:11;9.53;;;2.90;;
66129;SDS011;52930;51.464;11.764;2024-03-17T06:56:36;11.50;;;3.60;;
66129;SDS011;52930;51.464;11.764;2024-03-17T06:59:02;9.48;;;2.95;;
66129;SDS011;52930;51.464;11.764;2024-03-17T07:01:28;8.03;;;3.33;;
66129;SDS011;52930;51.464;11.764;2024-03-17T07:03:54;8.45;;;3.05;;
66129;SDS011;52930;51.464;11.764;2024-03-17T07:06:19;8.67;;;3.20;;
66129;SDS011;52930;51.464;11.764;2024-03-17T07:08:44;10.73;;;3.40;;
66129;SDS011;52930;51.464;11.764;2024-03-17T07:11:10;8.33;;;3.00;;
66129;SDS011;52930;51.464;11.764;2024-03-17T07:13:36;9.00;;;3.00;;
66129;SDS011;52930;51.464;11.764;2024-03-17T07:16:02;7.53;;;2.83;;
66129;SDS011;52930;51.464;11.764;2024-03-17T07:18:30;8.07;;;3.10;;
66129;SDS011;52930;51.464;11.764;2024-03-17T07:20:56;8.23;;;3.20;;
66129;SDS011;52930;51.464;11.764;2024-03-17T07:23:23;8.05;;;2.80;;
66129;SDS011;52930;51.464;11.764;2024-03-17T07:25:52;8.23;;;3.10;;
66129;SDS011;52930;51.464;11.764;2024-03-17T07:28:18;7.78;;;3.17;;
66129;SDS011;52930;51.464;11.764;2024-03-17T07:30:47;6.73;;;3.10;;
66129;SDS011;52930;51.464;11.764;2024-03-17T07:33:17;9.48;;;3.50;;
66129;SDS011;52930;51.464;11.764;2024-03-17T07:35:58;9.07;;;3.00;;
66129;SDS011;52930;51.464;11.764;2024-03-17T07:38:25;9.15;;;2.95;;
66129;SDS011;52930;51.464;11.764;2024-03-17T07:41:04;7.80;;;3.07;;
66129;SDS011;52930;51.464;11.764;2024-03-17T07:43:31;8.55;;;3.00;;
66129;SDS011;52930;51.464;11.764;2024-03-17T07:48:31;9.15;;;3.10;;
66129;SDS011;52930;51.464;11.764;2024-03-17T07:50:57;7.90;;;3.30;;
66129;SDS011;52930;51.464;11.764;2024-03-17T07:53:28;11.00;;;3.25;;
66129;SDS011;52930;51.464;11.764;2024-03-17T07:55:58;7.15;;;3.15;;
66129;SDS011;52930;51.464;11.764;2024-03-17T07:58:27;10.15;;;3.40;;
66129;SDS011;52930;51.464;11.764;2024-03-17T08:00:53;9.55;;;3.20;;
66129;SDS011;52930;51.464;11.764;2024-03-17T08:03:21;10.15;;;2.83;;
66129;SDS011;52930;51.464;11.764;2024-03-17T08:05:47;7.47;;;2.50;;
66129;SDS011;52930;51.464;11.764;2024-03-17T08:08:14;8.07;;;2.83;;
66129;SDS011;52930;51.464;11.764;2024-03-17T08:10:39;9.17;;;3.10;;
66129;SDS011;52930;51.464;11.764;2024-03-17T08:13:04;6.60;;;2.90;;
66129;SDS011;52930;51.464;11.764;2024-03-17T08:15:30;7.90;;;3.00;;
66129;SDS011;52930;51.464;11.764;2024-03-17T08:17:56;9.83;;;3.33;;
66129;SDS011;52930;51.464;11.764;2024-03-17T08:20:21;8.55;;;2.60;;
66129;SDS011;52930;51.464;11.764;2024-03-17T08:22:46;6.83;;;2.50;;
66129;SDS011;52930;51.464;11.764;2024-03-17T08:25:11;12.40;;;3.03;;
66129;SDS011;52930;51.464;11.764;2024-03-17T08:27:37;8.73;;;2.73;;
66129;SDS011;52930;51.464;11.764;2024-03-17T08:30:02;8.07;;;2.20;;
66129;SDS011;52930;51.464;11.764;2024-03-17T08:32:28;10.20;;;2.50;;
66129;SDS011;52930;51.464;11.764;2024-03-17T08:34:54;13.45;;;2.45;;
66129;SDS011;52930;51.464;11.764;2024-03-17T08:37:19;11.93;;;1.97;;
66129;SDS011;52930;51.464;11.764;2024-03-17T08:39:45;10.47;;;2.30;;
66129;SDS011;52930;51.464;11.764;2024-03-17T08:42:10;13.35;;;2.08;;
66129;SDS011;52930;51.464;11.764;2024-03-17T08:44:35;19.13;;;2.27;;
66129;SDS011;52930;51.464;11.764;2024-03-17T08:47:06;11.20;;;1.70;;
66129;SDS011;52930;51.464;11.764;2024-03-17T08:49:32;16.33;;;2.63;;
66129;SDS011;52930;51.464;11.764;2024-03-17T08:51:57;11.90;;;3.07;;
66129;SDS011;52930;51.464;11.764;2024-03-17T08:54:22;12.10;;;3.00;;
66129;SDS011;52930;51.464;11.764;2024-03-17T08:56:47;11.40;;;3.10;;
66129;SDS011;52930;51.464;11.764;2024-03-17T08:59:14;11.95;;;2.85;;
66129;SDS011;52930;51.464;11.764;2024-03-17T09:01:39;16.40;;;4.10;;
66129;SDS011;52930;51.464;11.764;2024-03-17T09:04:05;11.03;;;2.83;;
66129;SDS011;52930;51.464;11.764;2024-03-17T09:06:30;11.67;;;3.00;;
66129;SDS011;52930;51.464;11.764;2024-03-17T09:08:55;10.97;;;3.30;;
66129;SDS011;52930;51.464;11.764;2024-03-17T09:11:22;15.47;;;3.40;;
66129;SDS011;52930;51.464;11.764;2024-03-17T09:13:50;13.98;;;2.83;;
66129;SDS011;52930;51.464;11.764;2024-03-17T09:16:15;11.67;;;2.70;;
66129;SDS011;52930;51.464;11.764;2024-03-17T09:18:43;9.52;;;2.92;;
66129;SDS011;52930;51.464;11.764;2024-03-17T09:21:08;11.97;;;3.40;;
66129;SDS011;52930;51.464;11.764;2024-03-17T09:23:35;9.20;;;3.33;;
66129;SDS011;52930;51.464;11.764;2024-03-17T09:26:01;16.07;;;3.50;;
66129;SDS011;52930;51.464;11.764;2024-03-17T09:28:28;10.45;;;3.28;;
66129;SDS011;52930;51.464;11.764;2024-03-17T09:30:54;11.50;;;2.53;;
66129;SDS011;52930;51.464;11.764;2024-03-17T09:33:20;9.88;;;2.30;;
66129;SDS011;52930;51.464;11.764;2024-03-17T09:38:33;10.93;;;2.65;;
66129;SDS011;52930;51.464;11.764;2024-03-17T09:40:59;7.35;;;2.50;;
66129;SDS011;52930;51.464;11.764;2024-03-17T09:43:26;9.80;;;2.20;;
66129;SDS011;52930;51.464;11.764;2024-03-17T09:45:52;9.27;;;2.45;;
66129;SDS011;52930;51.464;11.764;2024-03-17T09:48:22;14.30;;;2.67;;
66129;SDS011;52930;51.464;11.764;2024-03-17T09:50:51;10.05;;;2.67;;
66129;SDS011;52930;51.464;11.764;2024-03-17T09:53:24;6.87;;;1.90;;
66129;SDS011;52930;51.464;11.764;2024-03-17T09:55:51;10.45;;;2.50;;
66129;SDS011;52930;51.464;11.764;2024-03-17T09:58:18;9.18;;;2.03;;
66129;SDS011;52930;51.464;11.764;2024-03-17T10:00:44;9.20;;;2.80;;
66129;SDS011;52930;51.464;11.764;2024-03-17T10:03:09;9.33;;;2.40;;
66129;SDS011;52930;51.464;11.764;2024-03-17T10:05:35;9.03;;;2.30;;
66129;SDS011;52930;51.464;11.764;2024-03-17T10:08:00;9.93;;;2.37;;
66129;SDS011;52930;51.464;11.764;2024-03-17T10:10:25;8.43;;;2.63;;
66129;SDS011;52930;51.464;11.764;2024-03-17T10:12:51;7.57;;;2.70;;
66129;SDS011;52930;51.464;11.764;2024-03-17T10:15:17;7.70;;;2.38;;
66129;SDS011;52930;51.464;11.764;2024-03-17T10:17:43;7.57;;;2.33;;
66129;SDS011;52930;51.464;11.764;2024-03-17T10:20:15;7.40;;;1.93;;
66129;SDS011;52930;51.464;11.764;2024-03-17T10:25:30;8.65;;;2.55;;
66129;SDS011;52930;51.464;11.764;2024-03-17T10:27:57;8.30;;;2.30;;
66129;SDS011;52930;51.464;11.764;2024-03-17T10:30:23;8.17;;;2.30;;
66129;SDS011;52930;51.464;11.764;2024-03-17T10:32:55;6.75;;;2.55;;
66129;SDS011;52930;51.464;11.764;2024-03-17T10:35:26;9.13;;;2.72;;
66129;SDS011;52930;51.464;11.764;2024-03-17T10:38:02;8.87;;;2.23;;
66129;SDS011;52930;51.464;11.764;2024-03-17T10:40:29;6.00;;;2.10;;
66129;SDS011;52930;51.464;11.764;2024-03-17T10:42:56;10.70;;;2.45;;
66129;SDS011;52930;51.464;11.764;2024-03-17T10:45:22;7.43;;;2.47;;
66129;SDS011;52930;51.464;11.764;2024-03-17T10:47:48;7.90;;;2.43;;
66129;SDS011;52930;51.464;11.764;2024-03-17T10:50:19;7.90;;;2.60;;
66129;SDS011;52930;51.464;11.764;2024-03-17T10:52:49;9.82;;;2.20;;
66129;SDS011;52930;51.464;11.764;2024-03-17T10:55:25;8.65;;;2.28;;
66129;SDS011;52930;51.464;11.764;2024-03-17T10:57:52;6.40;;;2.00;;
66129;SDS011;52930;51.464;11.764;2024-03-17T11:00:19;6.13;;;1.98;;
66129;SDS011;52930;51.464;11.764;2024-03-17T11:02:47;6.97;;;2.03;;
66129;SDS011;52930;51.464;11.764;2024-03-17T11:07:41;11.07;;;2.70;;
66129;SDS011;52930;51.464;11.764;2024-03-17T11:10:11;7.47;;;2.38;;
66129;SDS011;52930;51.464;11.764;2024-03-17T11:12:45;8.07;;;2.22;;
66129;SDS011;52930;51.464;11.764;2024-03-17T11:15:34;6.05;;;2.20;;
66129;SDS011;52930;51.464;11.764;2024-03-17T11:20:32;7.60;;;2.38;;
66129;SDS011;52930;51.464;11.764;2024-03-17T11:22:58;6.10;;;2.30;;
66129;SDS011;52930;51.464;11.764;2024-03-17T11:27:55;8.20;;;2.30;;
66129;SDS011;52930;51.464;11.764;2024-03-17T11:38:53;5.20;;;2.05;;
66129;SDS011;52930;51.464;11.764;2024-03-17T11:41:37;7.97;;;2.53;;
66129;SDS011;52930;51.464;11.764;2024-03-17T11:47:00;5.82;;;2.15;;
66129;SDS011;52930;51.464;11.764;2024-03-17T11:51:55;6.78;;;2.10;;
66129;SDS011;52930;51.464;11.764;2024-03-17T11:54:22;7.03;;;2.30;;
66129;SDS011;52930;51.464;11.764;2024-03-17T11:56:49;6.63;;;1.90;;
66129;SDS011;52930;51.464;11.764;2024-03-17T11:59:15;7.38;;;2.20;;
66129;SDS011;52930;51.464;11.764;2024-03-17T12:01:45;8.50;;;2.00;;
66129;SDS011;52930;51.464;11.764;2024-03-17T12:04:16;8.30;;;2.03;;
66129;SDS011;52930;51.464;11.764;2024-03-17T12:06:47;6.43;;;1.77;;
66129;SDS011;52930;51.464;11.764;2024-03-17T12:09:20;10.43;;;2.17;;
66129;SDS011;52930;51.464;11.764;2024-03-17T12:12:00;8.35;;;2.13;;
66129;SDS011;52930;51.464;11.764;2024-03-17T12:14:26;5.70;;;2.17;;
66129;SDS011;52930;51.464;11.764;2024-03-17T12:16:52;6.47;;;1.90;;
66129;SDS011;52930;51.464;11.764;2024-03-17T12:19:20;6.80;;;2.00;;
66129;SDS011;52930;51.464;11.764;2024-03-17T12:21:50;5.10;;;1.70;;
66129;SDS011;52930;51.464;11.764;2024-03-17T12:24:17;6.15;;;1.88;;
66129;SDS011;52930;51.464;11.764;2024-03-17T12:26:45;7.05;;;2.22;;
66129;SDS011;52930;51.464;11.764;2024-03-17T12:29:24;7.43;;;1.90;;
66129;SDS011;52930;51.464;11.764;2024-03-17T12:31:58;5.28;;;1.98;;
66129;SDS011;52930;51.464;11.764;2024-03-17T12:34:25;6.90;;;1.87;;
66129;SDS011;52930;51.464;11.764;2024-03-17T12:36:52;6.78;;;2.00;;
66129;SDS011;52930;51.464;11.764;2024-03-17T12:39:19;6.60;;;1.98;;
66129;SDS011;52930;51.464;11.764;2024-03-17T12:42:08;5.25;;;1.92;;
66129;SDS011;52930;51.464;11.764;2024-03-17T12:44:37;6.68;;;2.25;;
66129;SDS011;52930;51.464;11.764;2024-03-17T12:47:06;6.20;;;1.90;;
66129;SDS011;52930;51.464;11.764;2024-03-17T12:49:33;6.63;;;1.73;;
66129;SDS011;52930;51.464;11.764;2024-03-17T12:51:59;6.22;;;1.95;;
66129;SDS011;52930;51.464;11.764;2024-03-17T12:54:26;6.40;;;1.90;;
66129;SDS011;52930;51.464;11.764;2024-03-17T12:57:03;5.47;;;2.20;;
66129;SDS011;52930;51.464;11.764;2024-03-17T12:59:50;5.90;;;2.37;;
66129;SDS011;52930;51.464;11.764;2024-03-17T13:02:34;9.45;;;2.35;;
66129;SDS011;52930;51.464;11.764;2024-03-17T13:05:06;7.53;;;1.90;;
66129;SDS011;52930;51.464;11.764;2024-03-17T13:07:42;6.50;;;2.10;;
66129;SDS011;52930;51.464;11.764;2024-03-17T13:10:09;6.45;;;2.05;;
66129;SDS011;52930;51.464;11.764;2024-03-17T13:12:35;5.13;;;1.77;;
66129;SDS011;52930;51.464;11.764;2024-03-17T13:15:01;6.10;;;1.60;;
66129;SDS011;52930;51.464;11.764;2024-03-17T13:17:26;7.37;;;2.07;;
66129;SDS011;52930;51.464;11.764;2024-03-17T13:19:54;4.90;;;1.60;;
66129;SDS011;52930;51.464;11.764;2024-03-17T13:22:19;7.70;;;2.00;;
66129;SDS011;52930;51.464;11.764;2024-03-17T13:24:44;7.13;;;2.10;;
66129;SDS011;52930;51.464;11.764;2024-03-17T13:27:09;5.20;;;1.80;;
66129;SDS011;52930;51.464;11.764;2024-03-17T13:29:35;6.20;;;1.90;;
66129;SDS011;52930;51.464;11.764;2024-03-17T13:32:03;4.28;;;1.60;;
66129;SDS011;52930;51.464;11.764;2024-03-17T13:34:29;6.40;;;2.00;;
66129;SDS011;52930;51.464;11.764;2024-03-17T13:36:54;6.63;;;1.97;;
66129;SDS011;52930;51.464;11.764;2024-03-17T13:39:19;7.23;;;2.73;;
66129;SDS011;52930;51.464;11.764;2024-03-17T13:41:49;8.45;;;2.20;;
66129;SDS011;52930;51.464;11.764;2024-03-17T13:44:16;5.82;;;1.80;;
66129;SDS011;52930;51.464;11.764;2024-03-17T13:46:41;7.83;;;1.83;;
66129;SDS011;52930;51.464;11.764;2024-03-17T13:49:07;5.73;;;1.87;;
66129;SDS011;52930;51.464;11.764;2024-03-17T13:51:36;7.28;;;1.98;;
66129;SDS011;52930;51.464;11.764;2024-03-17T13:54:01;6.20;;;1.77;;
66129;SDS011;52930;51.464;11.764;2024-03-17T13:56:27;5.90;;;2.22;;
66129;SDS011;52930;51.464;11.764;2024-03-17T13:58:53;5.65;;;1.95;;
66129;SDS011;52930;51.464;11.764;2024-03-17T14:01:18;6.80;;;2.07;;
66129;SDS011;52930;51.464;11.764;2024-03-17T14:03:43;6.40;;;2.10;;
66129;SDS011;52930;51.464;11.764;2024-03-17T14:06:09;8.37;;;2.00;;
66129;SDS011;52930;51.464;11.764;2024-03-17T14:08:34;7.28;;;2.60;;
66129;SDS011;52930;51.464;11.764;2024-03-17T14:11:00;8.13;;;2.30;;
66129;SDS011;52930;51.464;11.764;2024-03-17T14:13:26;5.20;;;1.92;;
66129;SDS011;52930;51.464;11.764;2024-03-17T14:15:51;6.63;;;2.17;;
66129;SDS011;52930;51.464;11.764;2024-03-17T14:18:20;6.32;;;2.33;;
66129;SDS011;52930;51.464;11.764;2024-03-17T14:20:46;6.10;;;2.30;;
66129;SDS011;52930;51.464;11.764;2024-03-17T14:23:11;8.07;;;2.55;;
66129;SDS011;52930;51.464;11.764;2024-03-17T14:25:37;6.07;;;2.30;;
66129;SDS011;52930;51.464;11.764;2024-03-17T14:28:02;5.50;;;2.07;;
66129;SDS011;52930;51.464;11.764;2024-03-17T14:30:28;5.93;;;2.27;;
66129;SDS011;52930;51.464;11.764;2024-03-17T14:32:54;7.00;;;2.30;;
66129;SDS011;52930;51.464;11.764;2024-03-17T14:35:20;8.77;;;2.10;;
66129;SDS011;52930;51.464;11.764;2024-03-17T14:37:48;8.02;;;2.17;;
66129;SDS011;52930;51.464;11.764;2024-03-17T14:40:14;8.50;;;2.05;;
66129;SDS011;52930;51.464;11.764;2024-03-17T14:42:46;8.00;;;2.65;;
66129;SDS011;52930;51.464;11.764;2024-03-17T14:45:11;6.40;;;2.30;;
66129;SDS011;52930;51.464;11.764;2024-03-17T14:47:36;5.87;;;2.50;;
66129;SDS011;52930;51.464;11.764;2024-03-17T14:50:02;6.47;;;2.50;;
66129;SDS011;52930;51.464;11.764;2024-03-17T14:52:27;6.03;;;2.30;;
66129;SDS011;52930;51.464;11.764;2024-03-17T14:54:52;6.73;;;2.10;;
66129;SDS011;52930;51.464;11.764;2024-03-17T14:57:21;6.13;;;2.20;;